createdAt,value
2023-08-27T00:00:12.791Z,69.70
2023-08-27T00:02:42.453Z,69.80
2023-08-27T00:05:10.156Z,69.60
2023-08-27T00:07:38.829Z,69.30
2023-08-27T00:10:06.342Z,69.20
2023-08-27T00:12:33.424Z,69.30
2023-08-27T00:15:00.393Z,70.30
2023-08-27T00:17:27.476Z,70.60
2023-08-27T00:19:55.415Z,71.10
2023-08-27T00:22:22.515Z,71.40
2023-08-27T00:24:49.517Z,71.00
2023-08-27T00:27:16.940Z,70.90
2023-08-27T00:29:43.846Z,70.90
2023-08-27T00:32:23.177Z,70.80
2023-08-27T00:34:52.576Z,70.60
2023-08-27T00:37:19.889Z,70.50
2023-08-27T00:39:46.881Z,70.30
2023-08-27T00:42:13.940Z,70.50
2023-08-27T00:44:40.679Z,70.70
2023-08-27T00:47:08.311Z,70.80
2023-08-27T00:49:35.402Z,70.70
2023-08-27T00:52:03.034Z,70.80
2023-08-27T00:54:30.303Z,72.20
2023-08-27T00:56:57.241Z,72.90
2023-08-27T00:59:24.089Z,73.20
2023-08-27T01:01:52.566Z,73.30
2023-08-27T01:04:19.340Z,73.30
2023-08-27T01:06:46.130Z,73.30
2023-08-27T01:09:33.318Z,73.20
2023-08-27T01:12:04.274Z,72.90
2023-08-27T01:14:34.607Z,72.70
2023-08-27T01:17:04.287Z,72.80
2023-08-27T01:19:31.950Z,72.30
2023-08-27T01:21:58.785Z,71.90
2023-08-27T01:24:25.583Z,71.50
2023-08-27T01:26:54.987Z,71.60
2023-08-27T01:29:36.215Z,71.20
2023-08-27T01:32:13.552Z,71.20
2023-08-27T01:34:42.449Z,71.20
2023-08-27T01:37:11.751Z,71.10
2023-08-27T01:39:39.132Z,70.90
2023-08-27T01:42:06.644Z,70.70
2023-08-27T01:44:33.420Z,70.80
2023-08-27T01:47:00.646Z,71.00
2023-08-27T01:49:27.715Z,71.00
2023-08-27T01:51:54.481Z,71.10
2023-08-27T01:54:21.381Z,70.80
2023-08-27T01:56:48.228Z,70.70
2023-08-27T01:59:14.989Z,70.80
2023-08-27T02:01:42.326Z,70.80
2023-08-27T02:04:09.017Z,70.80
2023-08-27T02:06:36.128Z,70.70
2023-08-27T02:09:03.936Z,70.50
2023-08-27T02:11:30.690Z,70.50
2023-08-27T02:13:57.569Z,70.40
2023-08-27T02:16:24.868Z,70.30
2023-08-27T02:18:51.773Z,70.20
2023-08-27T02:21:18.807Z,70.40
2023-08-27T02:23:45.741Z,70.30
2023-08-27T02:26:13.245Z,70.30
2023-08-27T02:28:40.202Z,70.20
2023-08-27T02:31:09.309Z,69.80
2023-08-27T02:33:36.571Z,70.50
2023-08-27T02:36:03.499Z,70.60
2023-08-27T02:38:30.485Z,70.70
2023-08-27T02:40:57.326Z,70.70
2023-08-27T02:43:24.205Z,71.10
2023-08-27T02:45:51.584Z,71.60
2023-08-27T02:48:18.389Z,71.60
2023-08-27T02:50:45.402Z,71.30
2023-08-27T02:53:12.271Z,71.50
2023-08-27T02:55:39.414Z,71.90
2023-08-27T02:58:06.260Z,72.60
2023-08-27T03:00:33.150Z,73.00
2023-08-27T03:03:00.271Z,73.00
2023-08-27T03:05:27.466Z,72.70
2023-08-27T03:07:54.605Z,72.40
2023-08-27T03:10:23.503Z,72.00
2023-08-27T03:12:50.412Z,71.30
2023-08-27T03:15:17.514Z,71.10
2023-08-27T03:17:44.525Z,71.20
2023-08-27T03:20:11.551Z,71.00
2023-08-27T03:22:38.627Z,71.10
2023-08-27T03:25:06.594Z,71.20
2023-08-27T03:27:36.676Z,71.10
2023-08-27T03:30:04.959Z,71.50
2023-08-27T03:32:32.159Z,71.20
2023-08-27T03:34:59.728Z,71.20
2023-08-27T03:37:26.744Z,71.00
2023-08-27T03:39:53.685Z,70.80
2023-08-27T03:42:20.392Z,70.70
2023-08-27T03:44:47.320Z,70.80
2023-08-27T03:47:14.071Z,70.70
2023-08-27T03:49:41.303Z,70.40
2023-08-27T03:52:08.092Z,70.30
2023-08-27T03:54:36.142Z,69.90
2023-08-27T03:57:03.026Z,69.60
2023-08-27T03:59:30.056Z,69.30
2023-08-27T04:01:58.030Z,68.90
2023-08-27T04:04:24.884Z,68.90
2023-08-27T04:06:51.971Z,68.60
2023-08-27T04:09:18.744Z,68.80
2023-08-27T04:11:45.456Z,68.80
2023-08-27T04:14:12.130Z,68.60
2023-08-27T04:16:39.064Z,68.10
2023-08-27T04:19:05.809Z,67.90
2023-08-27T04:21:32.709Z,67.70
2023-08-27T04:23:59.438Z,68.10
2023-08-27T04:26:26.350Z,68.40
2023-08-27T04:28:55.841Z,68.40
2023-08-27T04:31:23.178Z,68.20
2023-08-27T04:33:49.984Z,68.20
2023-08-27T04:36:16.993Z,68.00
2023-08-27T04:38:43.819Z,68.30
2023-08-27T04:41:10.726Z,68.40
2023-08-27T04:43:37.477Z,68.70
2023-08-27T04:46:06.019Z,68.40
2023-08-27T04:48:32.822Z,68.40
2023-08-27T04:51:00.499Z,68.00
2023-08-27T04:53:28.133Z,67.90
2023-08-27T04:55:55.122Z,68.00
2023-08-27T04:58:23.877Z,68.00
2023-08-27T05:00:58.972Z,67.90
2023-08-27T05:03:26.738Z,68.00
2023-08-27T05:05:57.275Z,67.90
2023-08-27T05:08:24.110Z,67.50
2023-08-27T05:10:51.075Z,67.10
2023-08-27T05:13:18.509Z,67.00
2023-08-27T05:15:45.586Z,66.80
2023-08-27T05:18:12.534Z,66.50
2023-08-27T05:20:39.784Z,66.40
2023-08-27T05:23:06.714Z,66.50
2023-08-27T05:25:36.058Z,66.80
2023-08-27T05:28:04.581Z,66.70
2023-08-27T05:30:31.615Z,66.80
2023-08-27T05:32:59.602Z,66.90
2023-08-27T05:35:27.465Z,66.80
2023-08-27T05:37:54.475Z,66.90
2023-08-27T05:40:21.269Z,66.80
2023-08-27T05:42:48.248Z,66.70
2023-08-27T05:45:15.105Z,66.40
2023-08-27T05:47:42.174Z,66.10
2023-08-27T05:50:09.457Z,66.10
2023-08-27T05:52:36.489Z,66.30
2023-08-27T05:55:03.422Z,66.30
2023-08-27T05:57:30.259Z,66.30
2023-08-27T05:59:57.420Z,66.10
2023-08-27T06:02:25.239Z,66.00
2023-08-27T06:04:52.456Z,66.30
2023-08-27T06:07:19.708Z,66.30
2023-08-27T06:09:47.124Z,66.00
2023-08-27T06:12:13.977Z,65.90
2023-08-27T06:14:40.788Z,65.60
2023-08-27T06:17:08.140Z,65.50
2023-08-27T06:19:47.746Z,65.50
2023-08-27T06:22:16.869Z,65.40
2023-08-27T06:24:43.784Z,65.70
2023-08-27T06:27:10.577Z,65.70
2023-08-27T06:29:38.050Z,65.60
2023-08-27T06:32:05.481Z,65.20
2023-08-27T06:34:35.654Z,64.80
2023-08-27T06:37:03.105Z,65.50
2023-08-27T06:39:30.100Z,65.30
2023-08-27T06:41:57.472Z,65.20
2023-08-27T06:44:26.443Z,64.80
2023-08-27T06:46:56.580Z,64.60
2023-08-27T06:49:23.579Z,64.40
2023-08-27T06:51:50.499Z,64.80
2023-08-27T06:54:18.335Z,65.20
2023-08-27T06:56:45.432Z,65.00
2023-08-27T06:59:15.445Z,64.30
2023-08-27T07:01:42.289Z,63.10
2023-08-27T07:04:10.032Z,60.60
2023-08-27T07:06:39.913Z,57.00
2023-08-27T07:09:06.957Z,55.10
2023-08-27T07:11:36.989Z,54.80
2023-08-27T07:14:04.072Z,55.70
2023-08-27T07:16:31.679Z,55.60
2023-08-27T07:18:58.457Z,55.40
2023-08-27T07:21:25.449Z,54.30
2023-08-27T07:23:52.382Z,53.60
2023-08-27T07:26:19.588Z,52.80
2023-08-27T07:28:47.222Z,51.90
2023-08-27T07:31:15.276Z,50.90
2023-08-27T07:33:42.080Z,48.40
2023-08-27T07:36:09.673Z,45.20
2023-08-27T07:38:42.336Z,41.60
2023-08-27T07:41:10.657Z,38.80
2023-08-27T07:43:37.551Z,37.20
2023-08-27T07:46:04.773Z,35.20
2023-08-27T07:48:33.053Z,35.10
2023-08-27T07:51:00.066Z,33.50
2023-08-27T07:53:27.027Z,33.30
2023-08-27T07:55:55.588Z,34.70
2023-08-27T07:58:23.013Z,34.60
2023-08-27T08:00:56.651Z,33.30
2023-08-27T08:03:24.731Z,33.30
2023-08-27T08:05:51.489Z,32.50
2023-08-27T08:08:18.971Z,29.80
2023-08-27T08:10:45.995Z,29.10
2023-08-27T08:13:12.949Z,29.10
2023-08-27T08:15:39.898Z,28.30
2023-08-27T08:18:06.985Z,27.90
2023-08-27T08:20:34.124Z,27.50
2023-08-27T08:23:00.901Z,27.50
2023-08-27T08:25:28.734Z,28.50
2023-08-27T08:27:55.470Z,29.80
2023-08-27T08:30:23.429Z,30.40
2023-08-27T08:32:50.247Z,31.60
2023-08-27T08:35:17.214Z,33.40
2023-08-27T08:37:43.953Z,34.60
2023-08-27T08:40:15.472Z,35.90
2023-08-27T08:43:01.229Z,36.60
2023-08-27T08:45:33.265Z,37.00
2023-08-27T08:48:04.629Z,37.80
2023-08-27T08:50:33.772Z,38.60
2023-08-27T08:53:02.278Z,39.60
2023-08-27T08:55:31.276Z,40.70
2023-08-27T08:58:03.392Z,41.60
2023-08-27T09:00:31.324Z,42.00
2023-08-27T09:03:03.171Z,41.90
2023-08-27T09:05:31.884Z,41.80
2023-08-27T09:07:59.401Z,41.70
2023-08-27T09:10:28.061Z,41.10
2023-08-27T09:12:57.361Z,37.70
2023-08-27T09:15:24.961Z,37.00
2023-08-27T09:17:51.956Z,36.60
2023-08-27T09:20:18.924Z,37.10
2023-08-27T09:22:46.238Z,37.70
2023-08-27T09:25:14.116Z,37.20
2023-08-27T09:27:42.007Z,36.90
2023-08-27T09:30:09.680Z,34.30
2023-08-27T09:32:36.504Z,31.60
2023-08-27T09:35:05.341Z,30.00
2023-08-27T09:37:40.667Z,28.40
2023-08-27T09:40:12.323Z,27.20
2023-08-27T09:42:40.267Z,26.90
2023-08-27T09:45:08.006Z,25.70
2023-08-27T09:47:37.748Z,25.70
2023-08-27T09:50:06.817Z,26.60
2023-08-27T09:52:34.536Z,26.10
2023-08-27T09:55:01.889Z,24.80
2023-08-27T09:57:32.166Z,24.70
2023-08-27T09:59:59.089Z,25.70
2023-08-27T10:02:26.124Z,26.20
2023-08-27T10:04:57.547Z,27.10
2023-08-27T10:07:24.628Z,28.40
2023-08-27T10:09:55.589Z,29.50
2023-08-27T10:12:22.911Z,28.90
2023-08-27T10:14:49.928Z,28.80
2023-08-27T10:17:17.249Z,29.40
2023-08-27T10:19:44.739Z,28.20
2023-08-27T10:22:13.064Z,26.80
2023-08-27T10:24:41.060Z,25.40
2023-08-27T10:27:08.288Z,25.80
2023-08-27T10:29:35.854Z,26.90
2023-08-27T10:32:04.105Z,28.50
2023-08-27T10:34:31.946Z,27.80
2023-08-27T10:37:06.382Z,26.30
2023-08-27T10:39:34.775Z,25.00
2023-08-27T10:42:01.722Z,23.50
2023-08-27T10:44:28.491Z,23.00
2023-08-27T10:47:16.132Z,22.10
2023-08-27T10:49:46.577Z,21.90
2023-08-27T10:52:22.028Z,22.60
2023-08-27T10:54:58.765Z,22.20
2023-08-27T10:57:25.857Z,22.80
2023-08-27T11:00:06.955Z,22.50
2023-08-27T11:02:59.423Z,22.90
2023-08-27T11:05:30.341Z,22.60
2023-08-27T11:08:01.228Z,22.10
2023-08-27T11:10:33.255Z,23.00
2023-08-27T11:13:00.536Z,24.30
2023-08-27T11:15:35.179Z,25.60
2023-08-27T11:18:22.464Z,27.10
2023-08-27T11:20:51.102Z,28.50
2023-08-27T11:23:17.903Z,29.00
2023-08-27T11:25:46.488Z,30.00
2023-08-27T11:28:14.002Z,31.20
2023-08-27T11:30:42.103Z,32.00
2023-08-27T11:33:15.477Z,32.80
2023-08-27T11:35:42.386Z,33.20
2023-08-27T11:38:11.579Z,33.70
2023-08-27T11:40:38.535Z,33.80
2023-08-27T11:43:05.254Z,33.80
2023-08-27T11:45:38.697Z,33.70
2023-08-27T11:48:07.224Z,34.50
2023-08-27T11:50:40.135Z,35.10
2023-08-27T11:53:13.275Z,34.80
2023-08-27T11:55:40.465Z,35.00
2023-08-27T11:58:07.733Z,35.80
2023-08-27T12:00:34.610Z,36.00
2023-08-27T12:03:02.070Z,35.60
2023-08-27T12:05:29.135Z,35.70
2023-08-27T12:07:56.164Z,36.10
2023-08-27T12:10:26.505Z,36.20
2023-08-27T12:12:53.512Z,36.60
2023-08-27T12:15:20.357Z,37.20
2023-08-27T12:17:48.488Z,37.60
2023-08-27T12:20:16.255Z,35.80
2023-08-27T12:22:46.555Z,35.30
2023-08-27T12:25:14.189Z,36.10
2023-08-27T12:27:42.229Z,35.50
2023-08-27T12:30:10.504Z,35.50
2023-08-27T12:32:37.595Z,36.30
2023-08-27T12:35:07.551Z,36.50
2023-08-27T12:37:36.982Z,36.40
2023-08-27T12:40:03.959Z,37.00
2023-08-27T12:42:30.853Z,36.20
2023-08-27T12:44:57.545Z,36.20
2023-08-27T12:47:24.532Z,36.40
2023-08-27T12:49:51.299Z,36.40
2023-08-27T12:52:18.847Z,36.40
2023-08-27T12:54:45.622Z,36.20
2023-08-27T12:57:12.555Z,35.50
2023-08-27T12:59:39.266Z,34.50
2023-08-27T13:02:08.302Z,33.90
2023-08-27T13:04:35.488Z,34.10
2023-08-27T13:07:02.421Z,34.70
2023-08-27T13:09:29.233Z,34.60
2023-08-27T13:11:56.213Z,35.40
2023-08-27T13:14:24.111Z,36.00
2023-08-27T13:16:50.976Z,36.40
2023-08-27T13:19:17.951Z,38.30
2023-08-27T13:21:48.227Z,44.20
2023-08-27T13:24:15.478Z,44.80
2023-08-27T13:26:42.254Z,46.70
2023-08-27T13:29:09.360Z,47.20
2023-08-27T13:31:36.243Z,47.20
2023-08-27T13:34:04.182Z,47.00
2023-08-27T13:36:31.660Z,47.00
2023-08-27T13:38:58.744Z,46.60
2023-08-27T13:41:25.918Z,46.50
2023-08-27T13:43:52.864Z,45.70
2023-08-27T13:46:19.617Z,45.10
2023-08-27T13:48:46.558Z,44.50
2023-08-27T13:51:13.533Z,44.60
2023-08-27T13:53:40.485Z,43.30
2023-08-27T13:56:07.267Z,43.30
2023-08-27T13:58:34.913Z,43.80
2023-08-27T14:01:01.898Z,44.10
2023-08-27T14:03:29.148Z,44.60
2023-08-27T14:05:57.168Z,46.30
2023-08-27T14:08:27.107Z,47.20
2023-08-27T14:10:54.166Z,46.10
2023-08-27T14:13:21.519Z,46.30
2023-08-27T14:15:48.632Z,46.80
2023-08-27T14:18:15.847Z,46.10
2023-08-27T14:20:42.827Z,45.50
2023-08-27T14:23:09.630Z,45.50
2023-08-27T14:25:37.453Z,45.30
2023-08-27T14:28:05.364Z,45.00
2023-08-27T14:30:32.339Z,45.10
2023-08-27T14:32:59.156Z,45.50
2023-08-27T14:35:26.476Z,46.20
2023-08-27T14:37:53.354Z,46.10
2023-08-27T14:40:20.306Z,45.70
2023-08-27T14:42:47.086Z,46.10
2023-08-27T14:45:13.977Z,45.90
2023-08-27T14:47:40.727Z,46.20
2023-08-27T14:50:08.462Z,46.40
2023-08-27T14:52:35.237Z,45.70
2023-08-27T14:55:04.301Z,45.50
2023-08-27T14:57:32.747Z,45.00
2023-08-27T14:59:59.691Z,44.30
2023-08-27T15:02:26.454Z,44.20
2023-08-27T15:04:53.471Z,43.80
2023-08-27T15:07:20.237Z,43.70
2023-08-27T15:09:48.157Z,43.60
2023-08-27T15:12:17.606Z,43.30
2023-08-27T15:14:45.484Z,43.30
2023-08-27T15:17:12.559Z,43.20
2023-08-27T15:19:39.828Z,43.30
2023-08-27T15:22:06.755Z,43.30
2023-08-27T15:24:33.582Z,43.10
2023-08-27T15:27:00.524Z,43.20
2023-08-27T15:29:27.364Z,43.30
2023-08-27T15:31:54.427Z,43.30
2023-08-27T15:34:21.237Z,43.60
2023-08-27T15:36:48.342Z,42.60
2023-08-27T15:39:15.090Z,42.30
2023-08-27T15:41:42.033Z,42.20
2023-08-27T15:44:08.829Z,42.00
2023-08-27T15:46:36.074Z,41.90
2023-08-27T15:49:04.054Z,41.80
2023-08-27T15:51:31.161Z,41.80
2023-08-27T15:53:57.971Z,42.50
2023-08-27T15:56:24.917Z,42.20
2023-08-27T15:58:55.256Z,42.60
2023-08-27T16:01:22.110Z,42.90
2023-08-27T16:03:48.888Z,43.20
2023-08-27T16:06:15.874Z,43.10
2023-08-27T16:08:42.666Z,43.40
2023-08-27T16:11:09.422Z,43.50
2023-08-27T16:13:36.523Z,43.60
2023-08-27T16:16:05.742Z,43.50
2023-08-27T16:18:32.786Z,43.30
2023-08-27T16:20:59.767Z,43.30
2023-08-27T16:23:27.661Z,43.40
2023-08-27T16:25:55.799Z,43.60
2023-08-27T16:28:22.641Z,43.90
2023-08-27T16:30:49.408Z,43.90
2023-08-27T16:33:16.438Z,44.10
2023-08-27T16:35:43.221Z,44.20
2023-08-27T16:38:10.535Z,44.60
2023-08-27T16:40:39.326Z,44.70
2023-08-27T16:43:07.360Z,44.50
2023-08-27T16:45:34.581Z,44.60
2023-08-27T16:48:02.242Z,44.90
2023-08-27T16:50:29.789Z,45.30
2023-08-27T16:52:58.665Z,45.50
2023-08-27T16:55:26.618Z,45.30
2023-08-27T16:57:53.967Z,45.20
2023-08-27T17:00:21.613Z,45.20
2023-08-27T17:02:54.336Z,45.40
2023-08-27T17:05:23.562Z,45.30
2023-08-27T17:07:50.551Z,45.60
2023-08-27T17:10:17.631Z,45.90
2023-08-27T17:12:47.220Z,46.20
2023-08-27T17:15:16.013Z,46.50
2023-08-27T17:17:43.529Z,47.00
2023-08-27T17:20:10.933Z,47.60
2023-08-27T17:22:38.730Z,47.40
2023-08-27T17:25:06.087Z,47.60
2023-08-27T17:27:33.058Z,47.80
2023-08-27T17:29:59.777Z,47.90
2023-08-27T17:32:26.603Z,48.10
2023-08-27T17:34:53.656Z,48.20
2023-08-27T17:37:24.681Z,48.40
2023-08-27T17:39:57.525Z,48.50
2023-08-27T17:42:24.359Z,48.80
2023-08-27T17:44:52.105Z,48.90
2023-08-27T17:47:18.954Z,49.10
2023-08-27T17:49:47.841Z,49.20
2023-08-27T17:52:14.594Z,49.10
2023-08-27T17:54:41.543Z,48.90
2023-08-27T17:57:08.262Z,48.80
2023-08-27T17:59:35.213Z,48.60
2023-08-27T18:02:02.010Z,48.70
2023-08-27T18:04:29.339Z,48.50
2023-08-27T18:06:56.035Z,48.50
2023-08-27T18:09:23.036Z,48.60
2023-08-27T18:11:49.725Z,48.90
2023-08-27T18:14:16.604Z,49.10
2023-08-27T18:16:43.290Z,49.20
2023-08-27T18:19:10.191Z,49.40
2023-08-27T18:21:36.898Z,49.70
2023-08-27T18:24:04.064Z,49.90
2023-08-27T18:26:30.763Z,50.60
2023-08-27T18:28:57.635Z,50.20
2023-08-27T18:31:24.383Z,50.40
2023-08-27T18:33:51.269Z,50.50
2023-08-27T18:36:18.230Z,51.10
2023-08-27T18:38:44.936Z,51.40
2023-08-27T18:41:11.965Z,51.20
2023-08-27T18:43:38.719Z,51.40
2023-08-27T18:46:05.687Z,51.50
2023-08-27T18:48:32.471Z,51.80
2023-08-27T18:50:59.382Z,51.90
2023-08-27T18:53:26.113Z,52.10
2023-08-27T18:55:53.131Z,52.20
2023-08-27T18:58:20.400Z,52.20
2023-08-27T19:00:47.345Z,52.30
2023-08-27T19:03:14.109Z,52.30
2023-08-27T19:05:47.862Z,52.50
2023-08-27T19:08:14.638Z,52.80
2023-08-27T19:10:41.584Z,52.90
2023-08-27T19:13:08.533Z,53.10
2023-08-27T19:15:35.617Z,53.30
2023-08-27T19:18:04.232Z,53.50
2023-08-27T19:20:31.755Z,53.50
2023-08-27T19:22:58.579Z,53.50
2023-08-27T19:25:25.621Z,53.50
2023-08-27T19:27:53.897Z,53.50
2023-08-27T19:30:20.750Z,53.70
2023-08-27T19:32:47.596Z,53.80
2023-08-27T19:35:14.662Z,53.90
2023-08-27T19:37:41.623Z,54.00
2023-08-27T19:40:09.286Z,54.10
2023-08-27T19:42:35.998Z,54.20
2023-08-27T19:45:03.154Z,54.20
2023-08-27T19:47:30.416Z,54.30
2023-08-27T19:49:57.355Z,54.40
2023-08-27T19:52:24.101Z,54.40
2023-08-27T19:54:50.949Z,54.40
2023-08-27T19:57:18.021Z,54.30
2023-08-27T19:59:44.758Z,54.40
2023-08-27T20:02:11.680Z,54.60
2023-08-27T20:04:38.396Z,54.50
2023-08-27T20:07:05.227Z,54.60
2023-08-27T20:09:32.026Z,54.70
2023-08-27T20:11:59.004Z,54.70
2023-08-27T20:14:27.516Z,54.80
2023-08-27T20:16:55.496Z,54.90
2023-08-27T20:19:22.276Z,54.90
2023-08-27T20:21:49.152Z,55.00
2023-08-27T20:24:15.834Z,55.10
2023-08-27T20:26:42.677Z,55.30
2023-08-27T20:29:09.408Z,55.60
2023-08-27T20:31:36.213Z,55.80
2023-08-27T20:34:03.348Z,56.00
2023-08-27T20:36:30.370Z,56.30
2023-08-27T20:38:57.055Z,56.60
2023-08-27T20:41:28.056Z,56.90
2023-08-27T20:43:54.878Z,57.20
2023-08-27T20:46:21.759Z,57.50
2023-08-27T20:48:48.485Z,57.80
2023-08-27T20:51:15.310Z,58.10
2023-08-27T20:53:42.279Z,58.30
2023-08-27T20:56:09.043Z,58.40
2023-08-27T20:58:36.020Z,58.50
2023-08-27T21:01:02.837Z,59.20
2023-08-27T21:03:29.854Z,58.90
2023-08-27T21:05:56.553Z,59.20
2023-08-27T21:08:23.556Z,59.40
2023-08-27T21:10:50.366Z,59.40
2023-08-27T21:13:17.423Z,59.60
2023-08-27T21:15:44.227Z,59.70
2023-08-27T21:18:11.310Z,59.90
2023-08-27T21:20:38.138Z,60.00
2023-08-27T21:23:05.458Z,60.10
2023-08-27T21:25:32.235Z,60.20
2023-08-27T21:27:59.188Z,60.30
2023-08-27T21:30:26.036Z,60.40
2023-08-27T21:32:53.011Z,60.50
2023-08-27T21:35:19.794Z,60.50
2023-08-27T21:37:46.707Z,60.70
2023-08-27T21:40:13.409Z,60.70
2023-08-27T21:42:40.351Z,60.70
2023-08-27T21:45:07.874Z,60.80
2023-08-27T21:47:34.795Z,60.70
2023-08-27T21:50:01.592Z,60.90
2023-08-27T21:52:28.330Z,61.00
2023-08-27T21:54:55.193Z,61.10
2023-08-27T21:57:21.848Z,61.00
2023-08-27T21:59:50.293Z,61.00
2023-08-27T22:02:17.720Z,60.90
2023-08-27T22:04:44.976Z,61.00
2023-08-27T22:07:11.685Z,60.90
2023-08-27T22:09:38.570Z,61.00
2023-08-27T22:12:05.779Z,60.90
2023-08-27T22:14:32.892Z,61.00
2023-08-27T22:17:00.000Z,61.10
2023-08-27T22:19:26.939Z,61.40
2023-08-27T22:21:53.656Z,61.50
2023-08-27T22:24:20.599Z,61.60
2023-08-27T22:26:47.479Z,61.70
2023-08-27T22:29:14.409Z,61.90
2023-08-27T22:31:41.180Z,61.90
2023-08-27T22:34:08.121Z,61.80
2023-08-27T22:36:34.797Z,62.00
2023-08-27T22:39:01.757Z,62.10
2023-08-27T22:41:29.065Z,61.90
2023-08-27T22:43:55.970Z,61.90
2023-08-27T22:46:22.684Z,61.80
2023-08-27T22:48:49.572Z,61.60
2023-08-27T22:51:16.297Z,61.50
2023-08-27T22:53:43.659Z,61.50
2023-08-27T22:56:10.437Z,61.30
2023-08-27T22:58:37.210Z,61.50
2023-08-27T23:01:04.518Z,61.40
2023-08-27T23:03:31.361Z,61.30
2023-08-27T23:05:58.409Z,61.40
2023-08-27T23:08:25.170Z,61.50
2023-08-27T23:10:54.554Z,61.70
2023-08-27T23:13:24.022Z,61.70
2023-08-27T23:15:50.896Z,61.90
2023-08-27T23:18:18.415Z,62.30
2023-08-27T23:20:46.401Z,62.50
2023-08-27T23:23:13.175Z,62.70
2023-08-27T23:25:42.367Z,62.90
2023-08-27T23:28:09.969Z,63.30
2023-08-27T23:30:37.432Z,63.40
2023-08-27T23:33:06.322Z,63.70
2023-08-27T23:35:35.306Z,63.70
2023-08-27T23:38:02.296Z,63.80
2023-08-27T23:40:29.510Z,63.90
2023-08-27T23:42:56.433Z,63.80
2023-08-27T23:45:23.413Z,64.00
2023-08-27T23:47:50.219Z,64.30
2023-08-27T23:50:17.253Z,64.50
2023-08-27T23:52:44.120Z,64.60
2023-08-27T23:55:11.039Z,64.60
2023-08-27T23:57:37.944Z,64.60
